createdAt,value
2022-09-22T00:00:11.770Z,13.44
2022-09-22T00:01:11.956Z,13.44
2022-09-22T00:02:11.811Z,13.46
2022-09-22T00:03:11.743Z,13.44
2022-09-22T00:04:11.728Z,13.42
2022-09-22T00:05:11.718Z,13.44
2022-09-22T00:06:11.722Z,13.37
2022-09-22T00:07:11.710Z,13.41
2022-09-22T00:08:11.680Z,13.38
2022-09-22T00:09:11.686Z,13.39
2022-09-22T00:10:11.680Z,13.35
2022-09-22T00:11:11.680Z,13.27
2022-09-22T00:12:11.639Z,13.31
2022-09-22T00:13:11.634Z,13.38
2022-09-22T00:14:11.618Z,13.30
2022-09-22T00:15:11.615Z,13.30
2022-09-22T00:16:11.661Z,13.31
2022-09-22T00:17:11.608Z,13.28
2022-09-22T00:18:11.578Z,13.28
2022-09-22T00:19:11.583Z,13.23
2022-09-22T00:20:11.564Z,13.25
2022-09-22T00:21:11.550Z,13.22
2022-09-22T00:22:11.568Z,13.23
2022-09-22T00:23:11.528Z,13.22
2022-09-22T00:24:11.511Z,13.25
2022-09-22T00:25:11.507Z,13.22
2022-09-22T00:26:11.510Z,13.15
2022-09-22T00:27:11.488Z,13.13
2022-09-22T00:28:11.481Z,13.13
2022-09-22T00:29:11.453Z,13.11
2022-09-22T00:30:11.449Z,13.15
2022-09-22T00:31:11.475Z,13.11
2022-09-22T00:32:11.449Z,13.05
2022-09-22T00:33:11.448Z,13.09
2022-09-22T00:34:11.399Z,13.03
2022-09-22T00:35:11.387Z,13.08
2022-09-22T00:36:11.377Z,12.94
2022-09-22T00:37:11.383Z,12.98
2022-09-22T00:38:11.357Z,12.93
2022-09-22T00:39:11.349Z,12.90
2022-09-22T00:40:11.429Z,12.94
2022-09-22T00:41:11.340Z,12.93
2022-09-22T00:42:11.335Z,12.97
2022-09-22T00:43:11.301Z,12.91
2022-09-22T00:44:11.302Z,12.87
2022-09-22T00:45:11.283Z,12.91
2022-09-22T00:46:11.294Z,12.86
2022-09-22T00:47:11.277Z,12.83
2022-09-22T00:48:11.265Z,12.83
2022-09-22T00:49:11.251Z,12.83
2022-09-22T00:50:11.232Z,12.85
2022-09-22T00:51:11.224Z,12.86
2022-09-22T00:52:11.206Z,12.73
2022-09-22T00:53:11.209Z,12.72
2022-09-22T00:54:11.183Z,12.73
2022-09-22T00:55:11.173Z,12.82
2022-09-22T00:56:11.171Z,12.67
2022-09-22T00:57:11.154Z,12.78
2022-09-22T00:58:11.187Z,12.73
2022-09-22T00:59:11.136Z,12.67
2022-09-22T01:00:11.128Z,12.70
2022-09-22T01:01:11.180Z,12.64
2022-09-22T01:02:11.189Z,12.73
2022-09-22T01:03:11.096Z,12.65
2022-09-22T01:04:11.098Z,12.70
2022-09-22T01:05:11.087Z,12.58
2022-09-22T01:06:11.058Z,12.58
2022-09-22T01:07:11.065Z,12.55
2022-09-22T01:08:11.046Z,12.57
2022-09-22T01:09:11.021Z,12.57
2022-09-22T01:10:11.011Z,12.57
2022-09-22T01:11:11.012Z,12.60
2022-09-22T01:12:10.997Z,12.50
2022-09-22T01:13:11.119Z,12.60
2022-09-22T01:14:10.994Z,12.60
2022-09-22T01:15:10.964Z,12.54
2022-09-22T01:16:20.169Z,12.60
2022-09-22T01:17:10.948Z,12.60
2022-09-22T01:18:10.926Z,12.58
2022-09-22T01:19:10.947Z,12.58
2022-09-22T01:20:10.920Z,12.49
2022-09-22T01:21:10.900Z,12.42
2022-09-22T01:22:10.882Z,12.53
2022-09-22T01:23:10.879Z,12.49
2022-09-22T01:24:10.867Z,12.47
2022-09-22T01:25:10.879Z,12.54
2022-09-22T01:26:10.848Z,12.45
2022-09-22T01:27:10.832Z,12.47
2022-09-22T01:28:10.862Z,12.39
2022-09-22T01:29:11.155Z,12.42
2022-09-22T01:30:10.824Z,12.45
2022-09-22T01:31:10.869Z,12.35
2022-09-22T01:32:10.785Z,12.31
2022-09-22T01:33:10.775Z,12.32
2022-09-22T01:34:10.752Z,12.39
2022-09-22T01:35:10.753Z,12.29
2022-09-22T01:36:10.731Z,12.40
2022-09-22T01:37:10.746Z,12.39
2022-09-22T01:38:10.722Z,12.31
2022-09-22T01:39:10.717Z,12.32
2022-09-22T01:40:10.742Z,12.29
2022-09-22T01:41:10.680Z,12.28
2022-09-22T01:42:10.681Z,12.27
2022-09-22T01:43:10.694Z,12.29
2022-09-22T01:44:11.621Z,12.29
2022-09-22T01:45:10.633Z,12.32
2022-09-22T01:46:10.733Z,12.29
2022-09-22T01:47:10.618Z,12.29
2022-09-22T01:48:10.630Z,12.25
2022-09-22T01:49:10.590Z,12.24
2022-09-22T01:50:10.588Z,12.31
2022-09-22T01:51:10.621Z,12.24
2022-09-22T01:52:10.564Z,12.31
2022-09-22T01:53:10.551Z,12.29
2022-09-22T01:54:11.159Z,12.21
2022-09-22T01:55:10.540Z,12.28
2022-09-22T01:56:10.515Z,12.24
2022-09-22T01:57:10.516Z,12.22
2022-09-22T01:58:10.515Z,12.22
2022-09-22T01:59:10.503Z,12.24
2022-09-22T02:00:10.483Z,12.21
2022-09-22T02:01:14.457Z,12.21
2022-09-22T02:02:10.603Z,12.22
2022-09-22T02:03:10.451Z,12.21
2022-09-22T02:04:10.437Z,12.24
2022-09-22T02:05:10.417Z,12.21
2022-09-22T02:06:10.410Z,12.25
2022-09-22T02:07:10.397Z,12.24
2022-09-22T02:08:10.396Z,12.22
2022-09-22T02:09:10.396Z,12.27
2022-09-22T02:10:10.374Z,12.24
2022-09-22T02:11:10.372Z,12.21
2022-09-22T02:12:10.343Z,12.21
2022-09-22T02:13:10.349Z,12.27
2022-09-22T02:14:10.322Z,12.28
2022-09-22T02:15:10.321Z,12.27
2022-09-22T02:16:10.357Z,12.24
2022-09-22T02:17:10.288Z,12.18
2022-09-22T02:18:10.303Z,12.13
2022-09-22T02:19:13.519Z,12.15
2022-09-22T02:20:10.293Z,12.25
2022-09-22T02:21:10.265Z,12.17
2022-09-22T02:22:10.233Z,12.17
2022-09-22T02:23:10.237Z,12.22
2022-09-22T02:24:10.250Z,12.17
2022-09-22T02:25:10.201Z,12.17
2022-09-22T02:26:10.193Z,12.13
2022-09-22T02:27:10.190Z,12.18
2022-09-22T02:28:10.176Z,12.21
2022-09-22T02:29:10.160Z,12.17
2022-09-22T02:30:10.168Z,12.10
2022-09-22T02:31:19.949Z,12.18
2022-09-22T02:32:11.189Z,12.13
2022-09-22T02:33:10.125Z,12.18
2022-09-22T02:34:10.135Z,12.04
2022-09-22T02:35:10.118Z,12.13
2022-09-22T02:36:10.092Z,12.10
2022-09-22T02:37:10.088Z,12.21
2022-09-22T02:38:10.107Z,12.06
2022-09-22T02:39:10.064Z,12.09
2022-09-22T02:40:10.151Z,12.03
2022-09-22T02:41:10.033Z,12.06
2022-09-22T02:42:10.050Z,12.04
2022-09-22T02:43:10.017Z,12.04
2022-09-22T02:44:09.995Z,12.00
2022-09-22T02:45:09.994Z,12.06
2022-09-22T02:46:10.058Z,11.97
2022-09-22T02:47:09.980Z,12.06
2022-09-22T02:48:09.958Z,11.97
2022-09-22T02:49:09.950Z,11.99
2022-09-22T02:50:09.956Z,12.02
2022-09-22T02:51:09.941Z,11.94
2022-09-22T02:52:09.920Z,11.99
2022-09-22T02:53:09.900Z,11.95
2022-09-22T02:54:09.897Z,11.94
2022-09-22T02:55:09.898Z,11.91
2022-09-22T02:56:09.875Z,11.88
2022-09-22T02:57:09.887Z,11.83
2022-09-22T02:58:09.852Z,11.78
2022-09-22T02:59:10.054Z,11.84
2022-09-22T03:00:09.831Z,11.87
2022-09-22T03:01:09.879Z,11.88
2022-09-22T03:02:09.810Z,11.84
2022-09-22T03:03:09.824Z,11.87
2022-09-22T03:04:09.785Z,11.81
2022-09-22T03:05:09.865Z,11.88
2022-09-22T03:06:09.789Z,11.80
2022-09-22T03:07:09.755Z,11.81
2022-09-22T03:08:09.735Z,11.81
2022-09-22T03:09:09.742Z,11.81
2022-09-22T03:10:09.718Z,11.75
2022-09-22T03:11:09.704Z,11.83
2022-09-22T03:12:09.785Z,11.80
2022-09-22T03:13:16.447Z,11.78
2022-09-22T03:14:10.711Z,11.72
2022-09-22T03:15:09.669Z,11.77
2022-09-22T03:16:09.677Z,11.66
2022-09-22T03:17:09.649Z,11.68
2022-09-22T03:18:09.638Z,11.62
2022-09-22T03:19:09.633Z,11.65
2022-09-22T03:20:09.613Z,11.65
2022-09-22T03:21:09.600Z,11.62
2022-09-22T03:22:09.619Z,11.65
2022-09-22T03:23:09.581Z,11.65
2022-09-22T03:24:09.575Z,11.69
2022-09-22T03:25:09.569Z,11.65
2022-09-22T03:26:09.564Z,11.66
2022-09-22T03:27:09.542Z,11.72
2022-09-22T03:28:09.530Z,11.73
2022-09-22T03:29:09.520Z,11.66
2022-09-22T03:30:09.533Z,11.73
2022-09-22T03:31:09.598Z,11.66
2022-09-22T03:32:09.498Z,11.65
2022-09-22T03:33:09.676Z,11.72
2022-09-22T03:34:09.456Z,11.60
2022-09-22T03:35:09.447Z,11.68
2022-09-22T03:36:09.453Z,11.65
2022-09-22T03:37:09.426Z,11.66
2022-09-22T03:38:09.436Z,11.66
2022-09-22T03:39:09.420Z,11.65
2022-09-22T03:40:09.459Z,11.59
2022-09-22T03:41:09.396Z,11.63
2022-09-22T03:42:09.383Z,11.65
2022-09-22T03:43:14.394Z,11.62
2022-09-22T03:44:10.348Z,11.62
2022-09-22T03:45:09.348Z,11.68
2022-09-22T03:46:09.528Z,11.60
2022-09-22T03:47:09.318Z,11.59
2022-09-22T03:48:09.354Z,11.59
2022-09-22T03:49:09.292Z,11.54
2022-09-22T03:50:09.287Z,11.50
2022-09-22T03:51:09.281Z,11.54
2022-09-22T03:52:09.280Z,11.57
2022-09-22T03:53:09.274Z,11.59
2022-09-22T03:54:09.265Z,11.57
2022-09-22T03:55:09.243Z,11.54
2022-09-22T03:56:09.218Z,11.52
2022-09-22T03:57:09.207Z,11.54
2022-09-22T03:58:09.210Z,11.52
2022-09-22T03:59:09.217Z,11.47
2022-09-22T04:00:09.177Z,11.44
2022-09-22T04:01:09.233Z,11.47
2022-09-22T04:02:09.216Z,11.48
2022-09-22T04:03:09.150Z,11.54
2022-09-22T04:04:09.138Z,11.48
2022-09-22T04:05:09.147Z,11.52
2022-09-22T04:06:09.110Z,11.55
2022-09-22T04:07:09.666Z,11.55
2022-09-22T04:08:09.101Z,11.51
2022-09-22T04:09:09.079Z,11.50
2022-09-22T04:10:09.101Z,11.51
2022-09-22T04:11:09.061Z,11.44
2022-09-22T04:12:09.057Z,11.44
2022-09-22T04:13:09.043Z,11.50
2022-09-22T04:14:10.124Z,11.47
2022-09-22T04:15:09.672Z,11.35
2022-09-22T04:16:09.022Z,11.37
2022-09-22T04:17:09.008Z,11.40
2022-09-22T04:18:08.981Z,11.40
2022-09-22T04:20:10.568Z,11.35
2022-09-22T04:21:10.574Z,11.40
2022-09-22T04:22:10.547Z,11.43
2022-09-22T04:23:10.539Z,11.36
2022-09-22T04:24:10.526Z,11.37
2022-09-22T04:25:10.527Z,11.43
2022-09-22T04:26:10.518Z,11.37
2022-09-22T04:27:25.427Z,11.37
2022-09-22T04:28:11.475Z,11.41
2022-09-22T04:29:10.472Z,11.41
2022-09-22T04:30:10.487Z,11.40
2022-09-22T04:31:10.508Z,11.40
2022-09-22T04:32:12.270Z,11.45
2022-09-22T04:33:10.421Z,11.37
2022-09-22T04:34:10.414Z,11.41
2022-09-22T04:35:10.405Z,11.41
2022-09-22T04:36:10.393Z,11.33
2022-09-22T04:37:10.386Z,11.43
2022-09-22T04:38:10.388Z,11.43
2022-09-22T04:39:10.364Z,11.37
2022-09-22T04:40:10.365Z,11.43
2022-09-22T04:41:10.344Z,11.36
2022-09-22T04:42:10.360Z,11.37
2022-09-22T04:43:10.320Z,11.36
2022-09-22T04:44:10.313Z,11.41
2022-09-22T04:45:10.301Z,11.43
2022-09-22T04:46:10.310Z,11.43
2022-09-22T04:47:10.290Z,11.40
2022-09-22T04:48:10.257Z,11.35
2022-09-22T04:49:10.261Z,11.41
2022-09-22T04:50:10.240Z,11.32
2022-09-22T04:51:10.229Z,11.32
2022-09-22T04:52:10.224Z,11.35
2022-09-22T04:53:10.225Z,11.29
2022-09-22T04:54:10.191Z,11.32
2022-09-22T04:55:10.201Z,11.30
2022-09-22T04:56:10.177Z,11.29
2022-09-22T04:57:10.157Z,11.33
2022-09-22T04:58:10.163Z,11.19
2022-09-22T04:59:10.173Z,11.32
2022-09-22T05:00:10.134Z,11.33
2022-09-22T05:01:10.186Z,11.30
2022-09-22T05:02:10.105Z,11.32
2022-09-22T05:03:10.251Z,11.32
2022-09-22T05:04:10.230Z,11.32
2022-09-22T05:05:10.077Z,11.25
2022-09-22T05:06:10.065Z,11.30
2022-09-22T05:07:10.049Z,11.29
2022-09-22T05:08:10.047Z,11.32
2022-09-22T05:09:10.030Z,11.36
2022-09-22T05:10:10.029Z,11.29
2022-09-22T05:11:10.024Z,11.27
2022-09-22T05:12:10.006Z,11.33
2022-09-22T05:13:09.988Z,11.33
2022-09-22T05:14:09.986Z,11.26
2022-09-22T05:15:09.981Z,11.36
2022-09-22T05:16:09.983Z,11.37
2022-09-22T05:17:09.964Z,11.25
2022-09-22T05:18:09.937Z,11.36
2022-09-22T05:19:09.941Z,11.36
2022-09-22T05:20:09.915Z,11.37
2022-09-22T05:21:09.920Z,11.40
2022-09-22T05:22:09.892Z,11.37
2022-09-22T05:23:09.871Z,11.33
2022-09-22T05:24:09.878Z,11.29
2022-09-22T05:25:09.855Z,11.36
2022-09-22T05:26:09.868Z,11.33
2022-09-22T05:27:09.837Z,11.30
2022-09-22T05:28:09.831Z,11.36
2022-09-22T05:29:09.818Z,11.37
2022-09-22T05:30:09.820Z,11.33
2022-09-22T05:31:09.797Z,11.26
2022-09-22T05:32:09.866Z,11.36
2022-09-22T05:33:09.765Z,11.37
2022-09-22T05:34:09.765Z,11.36
2022-09-22T05:35:09.787Z,11.40
2022-09-22T05:36:09.733Z,11.36
2022-09-22T05:37:09.733Z,11.44
2022-09-22T05:38:09.713Z,11.43
2022-09-22T05:39:09.706Z,11.41
2022-09-22T05:40:09.729Z,11.43
2022-09-22T05:41:09.701Z,11.44
2022-09-22T05:42:11.121Z,11.40
2022-09-22T05:43:09.663Z,11.41
2022-09-22T05:44:09.647Z,11.45
2022-09-22T05:45:09.633Z,11.41
2022-09-22T05:46:09.735Z,11.44
2022-09-22T05:47:09.624Z,11.55
2022-09-22T05:48:09.632Z,11.52
2022-09-22T05:49:09.592Z,11.54
2022-09-22T05:50:09.583Z,11.55
2022-09-22T05:51:09.577Z,11.52
2022-09-22T05:52:09.573Z,11.54
2022-09-22T05:53:09.551Z,11.50
2022-09-22T05:54:09.553Z,11.50
2022-09-22T05:55:09.535Z,11.47
2022-09-22T05:56:09.523Z,11.45
2022-09-22T05:57:09.509Z,11.48
2022-09-22T05:58:09.494Z,11.54
2022-09-22T05:59:09.510Z,11.59
2022-09-22T06:00:09.472Z,11.62
2022-09-22T06:01:09.560Z,11.63
2022-09-22T06:02:25.163Z,11.55
2022-09-22T06:03:10.560Z,11.57
2022-09-22T06:04:09.429Z,11.57
2022-09-22T06:05:09.429Z,11.65
2022-09-22T06:06:09.405Z,11.78
2022-09-22T06:07:09.406Z,11.77
2022-09-22T06:08:09.385Z,11.86
2022-09-22T06:09:09.380Z,11.86
2022-09-22T06:10:09.378Z,12.00
2022-09-22T06:11:09.357Z,12.17
2022-09-22T06:12:09.339Z,12.13
2022-09-22T06:13:09.339Z,12.29
2022-09-22T06:14:09.322Z,12.32
2022-09-22T06:15:09.322Z,12.31
2022-09-22T06:16:09.421Z,12.36
2022-09-22T06:17:09.294Z,12.31
2022-09-22T06:18:14.626Z,12.45
2022-09-22T06:19:10.273Z,12.49
2022-09-22T06:20:09.257Z,12.58
2022-09-22T06:21:09.258Z,12.53
2022-09-22T06:22:09.230Z,12.64
2022-09-22T06:23:09.220Z,12.54
2022-09-22T06:24:09.214Z,12.60
2022-09-22T06:25:09.272Z,12.60
2022-09-22T06:26:09.195Z,12.68
2022-09-22T06:27:09.202Z,12.67
2022-09-22T06:28:09.189Z,12.67
2022-09-22T06:29:09.172Z,12.78
2022-09-22T06:30:09.143Z,12.78
2022-09-22T06:31:09.132Z,12.79
2022-09-22T06:32:09.216Z,12.73
2022-09-22T06:33:09.124Z,12.73
2022-09-22T06:34:09.116Z,12.70
2022-09-22T06:35:09.088Z,12.72
2022-09-22T06:36:09.087Z,12.72
2022-09-22T06:37:09.083Z,12.75
2022-09-22T06:38:09.084Z,12.65
2022-09-22T06:39:09.056Z,12.76
2022-09-22T06:40:11.098Z,12.73
2022-09-22T06:41:10.025Z,12.75
2022-09-22T06:42:09.020Z,12.79
2022-09-22T06:43:09.011Z,12.75
2022-09-22T06:44:09.156Z,12.75
2022-09-22T06:45:08.985Z,12.79
2022-09-22T06:46:09.045Z,12.76
2022-09-22T06:47:08.957Z,12.82
2022-09-22T06:48:10.435Z,12.83
2022-09-22T06:49:08.947Z,12.86
2022-09-22T06:50:08.949Z,12.90
2022-09-22T06:51:11.844Z,12.90
2022-09-22T06:52:08.920Z,12.93
2022-09-22T06:53:08.981Z,12.91
2022-09-22T06:54:08.920Z,12.87
2022-09-22T06:55:08.888Z,12.95
2022-09-22T06:56:08.858Z,12.93
2022-09-22T06:57:08.872Z,12.95
2022-09-22T06:58:09.003Z,13.01
2022-09-22T06:59:10.470Z,13.04
2022-09-22T07:00:08.839Z,13.05
2022-09-22T07:01:09.959Z,13.09
2022-09-22T07:02:08.908Z,13.15
2022-09-22T07:03:09.097Z,13.12
2022-09-22T07:04:08.774Z,13.12
2022-09-22T07:05:08.789Z,13.22
2022-09-22T07:06:08.765Z,13.16
2022-09-22T07:07:08.752Z,13.22
2022-09-22T07:08:08.938Z,13.23
2022-09-22T07:09:08.725Z,13.27
2022-09-22T07:10:08.716Z,13.33
2022-09-22T07:11:08.715Z,13.42
2022-09-22T07:12:08.697Z,13.42
2022-09-22T07:13:08.692Z,13.50
2022-09-22T07:14:08.931Z,13.42
2022-09-22T07:15:08.662Z,13.50
2022-09-22T07:16:08.689Z,13.57
2022-09-22T07:17:08.630Z,13.60
2022-09-22T07:18:08.630Z,13.53
2022-09-22T07:19:08.630Z,13.63
2022-09-22T07:20:08.598Z,13.74
2022-09-22T07:21:08.609Z,13.72
2022-09-22T07:22:08.630Z,13.68
2022-09-22T07:23:08.636Z,13.81
2022-09-22T07:24:08.564Z,13.81
2022-09-22T07:25:08.544Z,13.75
2022-09-22T07:26:08.546Z,13.83
2022-09-22T07:27:08.529Z,13.86
2022-09-22T07:28:08.541Z,13.95
2022-09-22T07:29:08.700Z,13.96
2022-09-22T07:30:08.494Z,13.99
2022-09-22T07:31:08.522Z,14.07
2022-09-22T07:32:08.525Z,14.04
2022-09-22T07:33:08.463Z,13.99
2022-09-22T07:34:08.460Z,14.15
2022-09-22T07:35:08.440Z,14.17
2022-09-22T07:36:08.429Z,14.11
2022-09-22T07:37:08.433Z,14.11
2022-09-22T07:38:08.476Z,14.17
2022-09-22T07:39:08.406Z,14.22
2022-09-22T07:40:08.461Z,14.25
2022-09-22T07:41:08.374Z,14.26
2022-09-22T07:42:08.377Z,14.18
2022-09-22T07:43:08.346Z,14.17
2022-09-22T07:44:08.414Z,14.20
2022-09-22T07:45:08.330Z,14.35
2022-09-22T07:46:08.317Z,14.33
2022-09-22T07:47:08.300Z,14.37
2022-09-22T07:48:08.388Z,14.47
2022-09-22T07:49:08.279Z,14.53
2022-09-22T07:50:08.298Z,14.62
2022-09-22T07:51:11.679Z,14.59
2022-09-22T07:52:09.266Z,14.66
2022-09-22T07:53:08.235Z,14.70
2022-09-22T07:54:08.265Z,14.81
2022-09-22T07:55:08.227Z,14.84
2022-09-22T07:56:08.227Z,14.88
2022-09-22T07:57:08.201Z,14.91
2022-09-22T07:58:08.311Z,14.91
2022-09-22T07:59:08.257Z,14.92
2022-09-22T08:00:08.218Z,14.99
2022-09-22T08:01:08.271Z,15.02
2022-09-22T08:02:08.183Z,15.03
2022-09-22T08:03:08.142Z,15.09
2022-09-22T08:04:08.118Z,15.18
2022-09-22T08:05:08.105Z,15.28
2022-09-22T08:06:08.102Z,15.27
2022-09-22T08:07:08.101Z,15.28
2022-09-22T08:08:08.098Z,15.35
2022-09-22T08:09:08.060Z,15.40
2022-09-22T08:10:08.155Z,15.49
2022-09-22T08:11:08.048Z,15.58
2022-09-22T08:12:08.057Z,15.59
2022-09-22T08:13:08.035Z,15.58
2022-09-22T08:14:08.147Z,15.64
2022-09-22T08:15:08.023Z,15.72
2022-09-22T08:16:08.072Z,15.79
2022-09-22T08:17:07.971Z,15.82
2022-09-22T08:18:08.029Z,15.80
2022-09-22T08:19:07.957Z,15.94
2022-09-22T08:20:07.941Z,15.83
2022-09-22T08:21:07.926Z,15.95
2022-09-22T08:22:07.943Z,16.02
2022-09-22T08:23:07.916Z,16.01
2022-09-22T08:24:07.892Z,15.90
2022-09-22T08:25:07.881Z,15.82
2022-09-22T08:26:07.890Z,15.95
2022-09-22T08:27:07.898Z,15.90
2022-09-22T08:28:07.846Z,16.00
2022-09-22T08:29:07.935Z,16.04
2022-09-22T08:30:07.829Z,16.10
2022-09-22T08:31:07.955Z,16.15
2022-09-22T08:32:07.815Z,16.26
2022-09-22T08:33:07.804Z,16.36
2022-09-22T08:34:07.809Z,16.42
2022-09-22T08:35:07.804Z,16.57
2022-09-22T08:36:07.776Z,16.66
2022-09-22T08:37:07.756Z,16.83
2022-09-22T08:38:12.622Z,16.94
2022-09-22T08:39:08.752Z,17.02
2022-09-22T08:40:07.770Z,17.02
2022-09-22T08:41:07.716Z,17.16
2022-09-22T08:42:07.847Z,17.26
2022-09-22T08:43:07.700Z,17.42
2022-09-22T08:44:07.684Z,17.46
2022-09-22T08:45:07.687Z,17.63
2022-09-22T08:46:07.717Z,17.83
2022-09-22T08:47:07.649Z,17.98
2022-09-22T08:48:07.635Z,18.29
2022-09-22T08:49:07.626Z,18.83
2022-09-22T08:50:07.635Z,19.84
2022-09-22T08:51:07.617Z,21.11
2022-09-22T08:52:07.593Z,22.54
2022-09-22T08:53:07.584Z,23.86
2022-09-22T08:54:07.637Z,25.16
2022-09-22T08:55:07.579Z,26.34
2022-09-22T08:56:07.543Z,27.63
2022-09-22T08:57:07.534Z,28.67
2022-09-22T08:58:07.555Z,29.35
2022-09-22T08:59:07.528Z,29.95
2022-09-22T09:00:07.671Z,30.75
2022-09-22T09:01:07.515Z,31.46
2022-09-22T09:02:07.521Z,32.26
2022-09-22T09:03:07.514Z,32.90
2022-09-22T09:04:07.519Z,33.27
2022-09-22T09:05:07.454Z,33.67
2022-09-22T09:06:07.458Z,34.05
2022-09-22T09:07:07.449Z,34.62
2022-09-22T09:08:07.420Z,35.04
2022-09-22T09:09:07.412Z,35.12
2022-09-22T09:10:07.419Z,35.33
2022-09-22T09:11:07.384Z,35.46
2022-09-22T09:12:07.385Z,35.60
2022-09-22T09:13:07.378Z,35.82
2022-09-22T09:14:07.428Z,36.04
2022-09-22T09:15:07.360Z,36.35
2022-09-22T09:16:07.382Z,36.70
2022-09-22T09:17:08.031Z,36.95
2022-09-22T09:18:07.314Z,37.23
2022-09-22T09:19:07.307Z,37.56
2022-09-22T09:20:07.305Z,37.67
2022-09-22T09:21:07.285Z,37.70
2022-09-22T09:22:07.285Z,37.87
2022-09-22T09:23:07.282Z,37.82
2022-09-22T09:25:24.879Z,37.70
2022-09-22T09:26:08.234Z,37.67
2022-09-22T09:27:07.236Z,37.71
2022-09-22T09:28:07.251Z,37.84
2022-09-22T09:29:07.509Z,37.99
2022-09-22T09:30:07.227Z,37.97
2022-09-22T09:31:07.241Z,37.83
2022-09-22T09:32:07.184Z,37.64
2022-09-22T09:33:07.168Z,36.93
2022-09-22T09:34:07.187Z,35.33
2022-09-22T09:35:07.162Z,34.32
2022-09-22T09:36:07.221Z,34.75
2022-09-22T09:37:07.132Z,35.15
2022-09-22T09:38:07.124Z,35.56
2022-09-22T09:39:07.122Z,36.17
2022-09-22T09:40:07.181Z,36.80
2022-09-22T09:41:07.125Z,35.95
2022-09-22T09:42:07.086Z,35.11
2022-09-22T09:43:07.078Z,33.24
2022-09-22T09:44:07.069Z,31.84
2022-09-22T09:45:07.057Z,30.44
2022-09-22T09:46:07.180Z,29.24
2022-09-22T09:47:07.062Z,28.29
2022-09-22T09:48:07.027Z,27.78
2022-09-22T09:49:07.029Z,28.67
2022-09-22T09:50:07.013Z,29.97
2022-09-22T09:51:07.005Z,31.10
2022-09-22T09:52:06.996Z,31.97
2022-09-22T09:53:08.725Z,32.43
2022-09-22T09:54:07.125Z,32.86
2022-09-22T09:55:06.960Z,33.39
2022-09-22T09:56:06.953Z,34.08
2022-09-22T09:57:06.943Z,33.96
2022-09-22T09:58:06.938Z,33.30
2022-09-22T09:59:07.034Z,32.23
2022-09-22T10:00:06.916Z,30.70
2022-09-22T10:01:06.911Z,29.49
2022-09-22T10:02:06.907Z,29.20
2022-09-22T10:03:06.881Z,28.56
2022-09-22T10:04:06.888Z,27.73
2022-09-22T10:05:06.864Z,27.25
2022-09-22T10:06:06.852Z,26.93
2022-09-22T10:07:06.842Z,26.66
2022-09-22T10:08:06.837Z,26.38
2022-09-22T10:09:06.913Z,26.06
2022-09-22T10:10:06.823Z,25.69
2022-09-22T10:11:06.797Z,25.46
2022-09-22T10:12:06.794Z,25.32
2022-09-22T10:13:06.784Z,25.17
2022-09-22T10:14:06.791Z,24.89
2022-09-22T10:15:06.767Z,24.89
2022-09-22T10:16:06.850Z,24.68
2022-09-22T10:17:06.760Z,24.40
2022-09-22T10:18:06.758Z,24.36
2022-09-22T10:19:06.738Z,24.35
2022-09-22T10:20:06.709Z,24.24
2022-09-22T10:21:06.689Z,24.17
2022-09-22T10:22:06.692Z,24.10
2022-09-22T10:23:06.712Z,23.93
2022-09-22T10:24:06.841Z,23.83
2022-09-22T10:25:06.654Z,23.98
2022-09-22T10:26:06.641Z,23.96
2022-09-22T10:27:07.440Z,24.01
2022-09-22T10:28:06.640Z,23.93
2022-09-22T10:29:06.613Z,23.96
2022-09-22T10:30:06.616Z,23.87
2022-09-22T10:31:06.665Z,23.86
2022-09-22T10:32:06.584Z,23.74
2022-09-22T10:33:06.580Z,23.81
2022-09-22T10:34:06.602Z,23.93
2022-09-22T10:35:06.585Z,24.02
2022-09-22T10:36:09.396Z,24.11
2022-09-22T10:37:07.528Z,24.18
2022-09-22T10:38:06.510Z,24.33
2022-09-22T10:39:06.501Z,24.24
2022-09-22T10:40:06.536Z,24.45
2022-09-22T10:41:06.494Z,24.36
2022-09-22T10:42:06.502Z,24.20
2022-09-22T10:43:06.468Z,24.11
2022-09-22T10:44:21.293Z,24.17
2022-09-22T10:45:07.443Z,23.78
2022-09-22T10:46:06.525Z,23.47
2022-09-22T10:47:06.425Z,23.25
2022-09-22T10:48:06.462Z,22.91
2022-09-22T10:49:06.475Z,22.80
2022-09-22T10:50:06.404Z,22.63
2022-09-22T10:51:06.370Z,22.41
2022-09-22T10:52:06.374Z,22.26
2022-09-22T10:53:06.370Z,22.14
2022-09-22T10:54:06.354Z,21.99
2022-09-22T10:55:06.327Z,21.96
2022-09-22T10:56:06.323Z,21.98
2022-09-22T10:57:06.305Z,22.22
2022-09-22T10:58:06.310Z,22.17
2022-09-22T10:59:06.298Z,22.13
2022-09-22T11:00:06.276Z,22.10
2022-09-22T11:01:06.340Z,21.98
2022-09-22T11:02:06.251Z,21.77
2022-09-22T11:03:06.242Z,21.69
2022-09-22T11:04:06.484Z,21.55
2022-09-22T11:05:06.230Z,21.48
2022-09-22T11:06:06.231Z,21.20
2022-09-22T11:07:06.204Z,21.21
2022-09-22T11:08:06.185Z,21.32
2022-09-22T11:09:06.196Z,21.32
2022-09-22T11:10:06.175Z,21.22
2022-09-22T11:11:06.172Z,21.17
2022-09-22T11:12:06.141Z,21.03
2022-09-22T11:13:06.148Z,20.92
2022-09-22T11:14:06.276Z,20.88
2022-09-22T11:15:06.119Z,20.80
2022-09-22T11:16:06.151Z,20.77
2022-09-22T11:17:06.088Z,20.66
2022-09-22T11:18:06.076Z,20.62
2022-09-22T11:19:06.091Z,20.44
2022-09-22T11:20:06.077Z,20.39
2022-09-22T11:21:06.054Z,20.36
2022-09-22T11:22:06.062Z,20.28
2022-09-22T11:23:06.028Z,20.26
2022-09-22T11:24:06.011Z,20.21
2022-09-22T11:25:06.015Z,20.14
2022-09-22T11:26:05.997Z,20.31
2022-09-22T11:27:05.986Z,20.44
2022-09-22T11:28:06.018Z,20.28
2022-09-22T11:29:05.980Z,20.29
2022-09-22T11:30:11.046Z,20.28
2022-09-22T11:31:07.004Z,20.28
2022-09-22T11:32:05.927Z,20.28
2022-09-22T11:33:05.917Z,20.28
2022-09-22T11:34:05.910Z,20.32
2022-09-22T11:35:05.904Z,20.40
2022-09-22T11:36:05.889Z,20.36
2022-09-22T11:37:05.897Z,20.32
2022-09-22T11:38:05.883Z,20.32
2022-09-22T11:39:05.856Z,20.39
2022-09-22T11:40:05.906Z,20.44
2022-09-22T11:41:05.836Z,20.43
2022-09-22T11:42:05.835Z,20.43
2022-09-22T11:43:05.810Z,20.31
2022-09-22T11:44:05.793Z,20.37
2022-09-22T11:45:05.784Z,20.48
2022-09-22T11:46:05.822Z,20.62
2022-09-22T11:47:05.773Z,20.67
2022-09-22T11:48:05.746Z,20.84
2022-09-22T11:49:05.751Z,20.69
2022-09-22T11:50:05.725Z,20.84
2022-09-22T11:51:05.716Z,20.90
2022-09-22T11:52:05.707Z,20.99
2022-09-22T11:53:05.709Z,21.05
2022-09-22T11:54:05.882Z,21.12
2022-09-22T11:55:05.680Z,21.03
2022-09-22T11:56:05.657Z,20.87
2022-09-22T11:57:05.655Z,20.80
2022-09-22T11:58:05.662Z,20.77
2022-09-22T11:59:05.643Z,20.65
2022-09-22T12:00:05.627Z,20.56
2022-09-22T12:01:09.572Z,20.50
2022-09-22T12:02:06.722Z,20.43
2022-09-22T12:03:05.788Z,20.41
2022-09-22T12:04:05.574Z,20.34
2022-09-22T12:05:05.594Z,20.31
2022-09-22T12:06:05.550Z,20.25
2022-09-22T12:07:05.538Z,20.19
2022-09-22T12:08:05.545Z,20.06
2022-09-22T12:09:05.543Z,20.07
2022-09-22T12:10:05.542Z,19.89
2022-09-22T12:11:05.499Z,19.85
2022-09-22T12:12:05.483Z,19.70
2022-09-22T12:13:05.480Z,19.62
2022-09-22T12:14:05.472Z,19.58
2022-09-22T12:15:05.457Z,19.54
2022-09-22T12:16:05.467Z,19.54
2022-09-22T12:17:05.442Z,19.41
2022-09-22T12:18:05.446Z,19.39
2022-09-22T12:19:05.552Z,19.33
2022-09-22T12:20:05.504Z,19.30
2022-09-22T12:21:05.415Z,19.18
2022-09-22T12:22:05.393Z,19.19
2022-09-22T12:23:05.370Z,19.09
2022-09-22T12:24:05.442Z,19.02
2022-09-22T12:25:05.356Z,18.93
2022-09-22T12:26:05.354Z,18.88
2022-09-22T12:27:05.342Z,18.80
2022-09-22T12:28:05.311Z,18.78
2022-09-22T12:29:05.294Z,18.75
2022-09-22T12:30:08.801Z,18.66
2022-09-22T12:31:06.489Z,18.62
2022-09-22T12:32:05.277Z,18.60
2022-09-22T12:33:05.263Z,18.55
2022-09-22T12:34:05.388Z,18.47
2022-09-22T12:35:05.235Z,18.44
2022-09-22T12:36:05.226Z,18.44
2022-09-22T12:37:05.232Z,18.38
2022-09-22T12:38:05.210Z,18.37
2022-09-22T12:39:05.206Z,18.43
2022-09-22T12:40:05.232Z,18.29
2022-09-22T12:41:05.208Z,18.25
2022-09-22T12:42:05.235Z,18.26
2022-09-22T12:43:05.168Z,18.26
2022-09-22T12:44:05.141Z,18.31
2022-09-22T12:45:05.121Z,18.43
2022-09-22T12:46:05.171Z,18.52
2022-09-22T12:47:05.132Z,18.44
2022-09-22T12:48:07.149Z,18.44
2022-09-22T12:49:05.272Z,18.44
2022-09-22T12:50:05.134Z,18.44
2022-09-22T12:51:05.067Z,18.37
2022-09-22T12:52:05.061Z,18.37
2022-09-22T12:53:05.078Z,18.29
2022-09-22T12:54:05.072Z,18.37